Aviation Digital Data Service (ADDS)

Output produced by TAFs form (1738 UTC 31 January 2015)
found at http://aviationweather.gov/adds/tafs/
 
KHOB 311729Z 3118/0118 10007KT 3SM BR OVC002 
     TEMPO 3118/3120 1SM BR OVC001 
     FM312100 18007KT P6SM OVC015 
     FM010200 21006KT P6SM SCT040 BKN100 
     FM010800 30008KT 4SM BR OVC009 
     FM011200 33012KT P6SM SCT050